Time;durP1;ratioP1;P1;durP2;ratioP2;P2;SDS_P1;SDS_P2;PMS_P1;PMS_P2;Temp;Humidity;BMP_temperature;BMP_pressure;BME280_temperature;BME280_humidity;BME280_pressure;Samples;Min_cycle;Max_cycle;Signal;HPM_P1;HPM_P2
2024/03/17 00:00:18;;;;;;;9.40;3.60;;;;;;;5.63;74.77;99540.03;4996557;28;20030;-84
2024/03/17 00:02:47;;;;;;;12.60;4.45;;;;;;;5.44;75.39;99517.75;5032560;28;20026;-85
2024/03/17 00:05:13;;;;;;;5.88;3.33;;;;;;;5.52;74.69;99517.59;5011252;28;20408;-86
2024/03/17 00:07:39;;;;;;;9.05;4.97;;;;;;;5.54;74.63;99520.84;4997261;28;20037;-86
2024/03/17 00:10:07;;;;;;;10.02;3.63;;;;;;;5.59;75.05;99539.59;5012416;28;20375;-86
2024/03/17 00:12:33;;;;;;;7.88;3.28;;;;;;;5.33;74.61;99515.69;4998621;28;20037;-86
2024/03/17 00:14:58;;;;;;;7.30;4.95;;;;;;;5.55;75.22;99541.00;5013661;28;20071;-85
2024/03/17 00:17:24;;;;;;;10.10;3.78;;;;;;;5.36;74.91;99499.41;5012695;28;20029;-84
2024/03/17 00:19:49;;;;;;;5.30;3.25;;;;;;;5.50;74.49;99532.03;4997333;28;20041;-86
2024/03/17 00:22:15;;;;;;;8.18;3.78;;;;;;;5.50;74.87;99538.16;4996765;28;20073;-85
2024/03/17 00:24:42;;;;;;;6.93;3.53;;;;;;;5.39;74.45;99524.66;5007338;28;20034;-84
2024/03/17 00:27:07;;;;;;;7.75;3.60;;;;;;;5.36;74.82;99533.81;5012825;28;20531;-85
2024/03/17 00:29:33;;;;;;;5.50;3.15;;;;;;;5.42;74.72;99545.47;5013088;28;20057;-84
2024/03/17 00:31:59;;;;;;;4.82;2.83;;;;;;;5.33;74.43;99537.69;4983917;28;20033;-86
2024/03/17 00:34:24;;;;;;;10.95;3.67;;;;;;;5.28;74.79;99539.28;5012403;28;20030;-85
2024/03/17 00:36:51;;;;;;;10.23;4.05;;;;;;;5.37;74.68;99539.94;4995712;28;20045;-84
2024/03/17 00:39:17;;;;;;;9.18;3.80;;;;;;;5.09;74.60;99509.06;4996754;28;20416;-85
2024/03/17 00:41:43;;;;;;;8.40;4.30;;;;;;;5.31;74.67;99547.66;5012475;28;20025;-85
2024/03/17 00:44:09;;;;;;;9.25;3.28;;;;;;;5.22;75.57;99548.03;5015307;28;20124;-85
2024/03/17 00:46:34;;;;;;;8.00;3.60;;;;;;;5.10;74.69;99515.19;4996621;28;20184;-86
2024/03/17 00:49:00;;;;;;;9.18;3.53;;;;;;;5.31;75.13;99544.19;5030380;28;20030;-85
2024/03/17 00:51:25;;;;;;;11.05;3.50;;;;;;;5.15;75.05;99528.66;4979093;28;20037;-85
2024/03/17 00:53:51;;;;;;;6.63;2.92;;;;;;;5.28;74.56;99541.94;4991414;28;20037;-86
2024/03/17 00:56:16;;;;;;;6.82;3.70;;;;;;;5.26;74.87;99546.63;4990059;28;20051;-86
2024/03/17 00:58:42;;;;;;;8.45;3.92;;;;;;;5.24;74.08;99541.50;5028806;28;20017;-84
2024/03/17 01:01:08;;;;;;;8.73;3.83;;;;;;;5.17;74.90;99521.34;5008241;28;20134;-86
2024/03/17 01:03:33;;;;;;;5.72;3.65;;;;;;;5.22;74.94;99540.09;5030132;28;20026;-85
2024/03/17 01:05:58;;;;;;;5.10;3.78;;;;;;;5.10;74.44;99523.13;5000526;28;20142;-86
2024/03/17 01:08:24;;;;;;;9.57;3.80;;;;;;;5.19;74.03;99536.00;5011063;28;20057;-85
2024/03/17 01:10:49;;;;;;;10.07;3.03;;;;;;;5.15;74.19;99536.59;5032139;28;20059;-85
2024/03/17 01:13:15;;;;;;;5.70;3.42;;;;;;;5.07;75.33;99540.19;5029047;28;20045;-85
2024/03/17 01:15:41;;;;;;;6.05;2.80;;;;;;;5.04;74.76;99527.38;5029864;28;20055;-86
2024/03/17 01:18:07;;;;;;;5.45;3.28;;;;;;;5.04;75.47;99542.44;5031456;28;20021;-85
2024/03/17 01:20:35;;;;;;;8.30;3.30;;;;;;;5.02;75.21;99529.38;5026789;28;20041;-86
2024/03/17 01:23:01;;;;;;;9.13;3.33;;;;;;;5.05;74.90;99536.13;5030894;28;20033;-85
2024/03/17 01:25:27;;;;;;;11.65;3.85;;;;;;;4.98;74.80;99528.16;5012518;28;20030;-86
2024/03/17 01:27:53;;;;;;;7.72;3.08;;;;;;;4.92;75.34;99514.88;5014844;28;20034;-86
2024/03/17 01:30:22;;;;;;;6.80;3.22;;;;;;;4.94;75.52;99534.03;5008993;28;20366;-86
2024/03/17 01:32:48;;;;;;;6.88;3.13;;;;;;;4.94;75.55;99526.91;5010412;28;20026;-86
2024/03/17 01:35:14;;;;;;;4.03;3.30;;;;;;;4.83;74.97;99497.53;5012734;28;20029;-85
2024/03/17 01:37:39;;;;;;;4.72;2.80;;;;;;;4.79;75.05;99498.94;4998595;28;20139;-85
2024/03/17 01:40:09;;;;;;;9.38;3.67;;;;;;;4.92;75.24;99517.53;5032328;28;20500;-85
2024/03/17 01:42:36;;;;;;;6.53;3.33;;;;;;;4.90;75.29;99516.91;5003674;28;20026;-85
2024/03/17 01:45:23;;;;;;;16.58;4.35;;;;;;;4.75;75.56;99506.47;4997262;28;20064;-85
2024/03/17 01:47:49;;;;;;;7.85;3.70;;;;;;;4.65;75.23;99494.63;5015058;28;20037;-86
2024/03/17 01:50:18;;;;;;;11.35;3.80;;;;;;;4.86;74.90;99516.50;4999885;28;20080;-85
2024/03/17 01:52:46;;;;;;;8.70;3.83;;;;;;;4.80;75.27;99512.00;4997516;28;20710;-84
2024/03/17 01:55:11;;;;;;;5.38;2.95;;;;;;;4.65;75.31;99494.63;4997560;28;20029;-86
2024/03/17 01:57:37;;;;;;;6.97;3.55;;;;;;;4.59;75.28;99479.53;5001169;28;20095;-86
2024/03/17 02:00:08;;;;;;;6.70;3.90;;;;;;;4.18;75.62;99422.16;5012032;28;20362;-85
2024/03/17 02:02:36;;;;;;;8.15;3.80;;;;;;;4.74;75.55;99510.09;5013975;28;20029;-86
2024/03/17 02:05:03;;;;;;;10.77;3.72;;;;;;;4.71;75.16;99509.69;5015862;28;20042;-85
2024/03/17 02:07:28;;;;;;;6.40;3.60;;;;;;;4.59;75.76;99501.47;5010940;28;20075;-84
2024/03/17 02:09:53;;;;;;;10.90;3.20;;;;;;;4.78;75.74;99511.38;4998288;28;20025;-86
2024/03/17 02:12:19;;;;;;;11.85;4.00;;;;;;;4.79;74.94;99498.94;5013663;28;20392;-85
2024/03/17 02:14:44;;;;;;;5.25;3.33;;;;;;;4.42;75.33;99457.88;5012766;28;20037;-85
2024/03/17 02:17:11;;;;;;;6.63;2.88;;;;;;;4.74;75.14;99504.81;5012039;28;20084;-85
2024/03/17 02:19:36;;;;;;;5.43;4.22;;;;;;;4.70;74.58;99503.59;4997733;28;20025;-86
2024/03/17 02:22:01;;;;;;;5.70;3.65;;;;;;;4.58;74.94;99489.28;5010200;28;20041;-85
2024/03/17 02:24:27;;;;;;;11.40;4.25;;;;;;;4.49;75.33;99485.97;4996902;28;20029;-85
2024/03/17 02:26:52;;;;;;;9.20;3.60;;;;;;;4.46;75.59;99472.31;5014473;28;20029;-85
2024/03/17 02:29:17;;;;;;;7.05;3.47;;;;;;;4.57;75.22;99501.69;5008676;28;20037;-86
2024/03/17 02:31:43;;;;;;;8.52;3.50;;;;;;;4.35;75.02;99455.19;5014306;28;20068;-85
2024/03/17 02:34:08;;;;;;;7.00;3.83;;;;;;;4.29;75.35;99463.88;5015245;28;20039;-86
2024/03/17 02:36:33;;;;;;;7.72;4.28;;;;;;;4.51;75.47;99478.69;5012362;28;20033;-86
2024/03/17 02:41:43;;;;;;;7.55;4.28;;;;;;;4.47;74.77;99469.50;5031805;28;20577;-86
2024/03/17 02:44:09;;;;;;;8.00;3.83;;;;;;;4.48;74.62;99481.69;5015468;28;20113;-86
2024/03/17 02:46:34;;;;;;;10.43;3.83;;;;;;;4.33;74.93;99451.91;4999383;28;20045;-85
2024/03/17 02:49:00;;;;;;;10.68;3.42;;;;;;;4.24;74.94;99442.50;5010420;28;20404;-85
2024/03/17 02:51:25;;;;;;;7.72;3.55;;;;;;;4.38;74.79;99468.03;5008649;28;20516;-84
2024/03/17 02:53:51;;;;;;;8.15;3.50;;;;;;;4.31;74.71;99461.03;5016007;28;20448;-86
2024/03/17 02:56:18;;;;;;;9.98;3.97;;;;;;;4.43;74.58;99481.44;4998104;28;20121;-85
2024/03/17 02:58:48;;;;;;;9.77;4.55;;;;;;;4.19;74.79;99458.13;5031680;28;20036;-85
2024/03/17 03:01:14;;;;;;;10.45;4.07;;;;;;;4.39;75.03;99484.69;5012289;28;20033;-85
2024/03/17 03:03:40;;;;;;;8.00;4.05;;;;;;;4.22;74.45;99467.47;5012507;28;20059;-84
2024/03/17 03:06:09;;;;;;;8.18;3.97;;;;;;;4.24;74.51;99479.50;5032020;28;20397;-85
2024/03/17 03:08:41;;;;;;;6.03;4.93;;;;;;;4.25;74.44;99473.22;4997172;28;20465;-85
2024/03/17 03:11:12;;;;;;;11.27;3.70;;;;;;;4.23;74.26;99475.22;5013290;28;20022;-86
2024/03/17 03:13:42;;;;;;;5.70;3.35;;;;;;;4.01;75.15;99455.16;5015694;28;20029;-85
2024/03/17 03:16:13;;;;;;;8.32;3.97;;;;;;;4.03;74.91;99452.31;5029492;28;20057;-84
2024/03/17 03:18:40;;;;;;;10.80;4.40;;;;;;;4.20;74.44;99480.06;5012316;28;20017;-84
2024/03/17 03:21:06;;;;;;;9.90;4.43;;;;;;;4.11;74.60;99468.81;5009992;28;20053;-84
2024/03/17 03:23:32;;;;;;;9.07;4.63;;;;;;;4.24;75.52;99481.31;5016573;28;20040;-85
2024/03/17 03:25:59;;;;;;;9.00;3.83;;;;;;;4.09;74.85;99473.50;5029228;28;20067;-86
2024/03/17 03:28:25;;;;;;;9.82;3.92;;;;;;;3.96;75.08;99457.53;5015383;28;20048;-85
2024/03/17 03:30:51;;;;;;;7.30;3.80;;;;;;;3.83;75.47;99430.22;4996461;28;20041;-86
2024/03/17 03:33:17;;;;;;;7.35;4.05;;;;;;;3.90;75.18;99468.03;4976292;28;20025;-85
2024/03/17 03:35:43;;;;;;;8.50;3.40;;;;;;;3.75;75.21;99439.91;5016115;28;20473;-84
2024/03/17 03:38:09;;;;;;;7.03;3.75;;;;;;;3.98;75.22;99491.66;5003568;28;20061;-84
2024/03/17 03:40:34;;;;;;;8.23;4.88;;;;;;;4.01;75.17;99486.03;5015396;28;20167;-84
2024/03/17 03:42:59;;;;;;;6.40;3.80;;;;;;;4.03;75.61;99486.66;5013100;28;20140;-86
2024/03/17 03:45:25;;;;;;;11.98;4.75;;;;;;;3.98;74.79;99468.72;5029922;28;20025;-85
2024/03/17 03:47:51;;;;;;;6.30;4.00;;;;;;;3.92;75.49;99460.75;5032506;28;20037;-85
2024/03/17 03:50:21;;;;;;;7.90;4.25;;;;;;;4.00;74.97;99479.91;5009962;28;20057;-86
2024/03/17 03:52:46;;;;;;;9.57;4.13;;;;;;;4.05;75.33;99479.34;5029750;28;20030;-85
2024/03/17 03:55:15;;;;;;;13.70;4.22;;;;;;;3.88;75.34;99452.41;5028705;28;20042;-85
2024/03/17 03:57:46;;;;;;;7.65;3.85;;;;;;;4.11;74.82;99482.03;4995716;28;20079;-85
2024/03/17 04:00:12;;;;;;;12.90;4.65;;;;;;;3.97;75.42;99468.94;4996568;28;20478;-85
2024/03/17 04:02:42;;;;;;;10.65;4.75;;;;;;;3.88;75.03;99455.03;4996171;28;20029;-86
2024/03/17 04:05:09;;;;;;;9.18;3.85;;;;;;;4.00;74.65;99479.91;5009556;28;20065;-86
2024/03/17 04:07:35;;;;;;;15.15;4.63;;;;;;;3.96;75.22;99483.94;5032127;28;20021;-85
2024/03/17 04:10:01;;;;;;;7.68;4.28;;;;;;;4.01;74.48;99491.31;5008303;28;20038;-86
2024/03/17 04:12:27;;;;;;;9.05;5.15;;;;;;;3.97;74.52;99487.41;4996755;28;20081;-85
2024/03/17 04:14:53;;;;;;;8.35;4.80;;;;;;;4.01;74.82;99491.31;5011440;28;20485;-85
2024/03/17 04:17:23;;;;;;;12.20;4.55;;;;;;;3.95;74.64;99479.69;5014175;28;20060;-84
2024/03/17 04:19:48;;;;;;;7.65;3.97;;;;;;;3.77;74.41;99455.56;5010445;28;20026;-86
2024/03/17 04:22:16;;;;;;;10.75;4.50;;;;;;;3.94;74.59;99480.69;5027462;28;20037;-86
2024/03/17 04:24:42;;;;;;;10.40;4.90;;;;;;;3.95;74.73;99487.63;5009925;28;20033;-86
2024/03/17 04:27:08;;;;;;;10.38;4.60;;;;;;;3.92;74.76;99492.44;5032078;28;20040;-86
2024/03/17 04:29:33;;;;;;;11.43;4.78;;;;;;;3.84;74.64;99461.72;5012635;28;20033;-85
2024/03/17 04:32:00;;;;;;;9.13;5.22;;;;;;;3.87;74.71;99474.53;4993762;28;20116;-86
2024/03/17 04:34:26;;;;;;;13.65;4.28;;;;;;;3.56;75.04;99445.81;5011886;28;20025;-85
2024/03/17 04:36:53;;;;;;;9.65;4.22;;;;;;;3.74;74.77;99471.75;5011923;28;20124;-85
2024/03/17 04:39:19;;;;;;;8.32;4.57;;;;;;;3.76;74.84;99475.84;5015215;28;20025;-86
2024/03/17 04:41:45;;;;;;;10.02;4.38;;;;;;;3.80;74.85;99471.00;5031940;28;20049;-85
2024/03/17 04:44:10;;;;;;;8.50;4.45;;;;;;;3.61;74.58;99461.09;5027944;28;20017;-84
2024/03/17 04:46:35;;;;;;;11.32;5.00;;;;;;;3.82;75.10;99492.78;5011314;28;20039;-85
2024/03/17 04:49:03;;;;;;;8.50;4.65;;;;;;;3.72;74.31;99485.16;5014192;28;20021;-85
2024/03/17 04:51:29;;;;;;;11.50;4.78;;;;;;;3.76;75.22;99501.44;5028524;28;20026;-84
2024/03/17 04:53:54;;;;;;;9.50;5.38;;;;;;;3.76;74.67;99498.78;5014662;28;20036;-86
2024/03/17 04:56:19;;;;;;;8.75;4.65;;;;;;;3.67;74.37;99486.72;5028355;28;20056;-85
2024/03/17 04:58:45;;;;;;;8.00;4.72;;;;;;;3.77;74.43;99511.00;5010423;28;20056;-86
2024/03/17 05:01:10;;;;;;;11.02;5.32;;;;;;;3.76;74.90;99517.28;4995547;28;20033;-86
2024/03/17 05:03:35;;;;;;;9.68;4.95;;;;;;;3.74;74.50;99511.38;4996910;28;20068;-84
2024/03/17 05:06:02;;;;;;;9.65;4.90;;;;;;;3.68;75.14;99520.03;5011013;28;20044;-85
2024/03/17 05:08:28;;;;;;;11.13;5.32;;;;;;;3.54;75.70;99505.88;5011783;28;20397;-85
2024/03/17 05:11:04;;;;;;;11.07;4.78;;;;;;;3.65;75.54;99525.69;5008466;28;20061;-85
2024/03/17 05:13:30;;;;;;;;;;;;;;;3.71;75.12;99530.25;5014062;28;20503;-84
2024/03/17 05:15:56;;;;;;;11.38;5.07;;;;;;;3.75;74.98;99534.13;5026963;28;19960;-85
2024/03/17 05:18:22;;;;;;;9.35;5.60;;;;;;;3.49;74.71;99507.47;4994068;28;20610;-85
2024/03/17 05:20:57;;;;;;;9.00;5.40;;;;;;;3.54;74.62;99508.53;5010127;28;20559;-86
2024/03/17 05:23:22;;;;;;;9.38;5.07;;;;;;;3.27;75.24;99474.13;5029099;28;20029;-85
2024/03/17 05:25:51;;;;;;;11.10;5.35;;;;;;;3.56;74.94;99537.38;4996990;28;20515;-84
2024/03/17 05:28:17;;;;;;;11.02;4.57;;;;;;;3.58;74.73;99535.38;5009757;28;20033;-85
2024/03/17 05:30:42;;;;;;;15.38;6.25;;;;;;;3.58;75.16;99536.16;5028123;28;20052;-84
2024/03/17 05:33:07;;;;;;;7.28;4.57;;;;;;;3.64;74.87;99545.19;4999262;28;20029;-85
2024/03/17 05:35:33;;;;;;;8.73;5.18;;;;;;;3.59;74.96;99545.75;4996193;28;20065;-85
2024/03/17 05:37:58;;;;;;;11.48;5.68;;;;;;;3.58;74.50;99545.94;5014176;28;20381;-85
2024/03/17 05:40:24;;;;;;;11.43;5.90;;;;;;;3.62;75.16;99555.09;4984081;28;20029;-86
2024/03/17 05:42:50;;;;;;;8.90;4.78;;;;;;;3.53;74.95;99529.84;5033163;28;20133;-86
2024/03/17 05:45:16;;;;;;;10.95;4.63;;;;;;;3.60;75.54;99549.19;4996878;28;20124;-86
2024/03/17 05:47:41;;;;;;;7.97;4.43;;;;;;;3.68;74.73;99549.91;5012879;28;20026;-85
2024/03/17 05:50:07;;;;;;;9.75;5.00;;;;;;;3.58;74.74;99545.94;5026790;28;20041;-86
2024/03/17 05:52:33;;;;;;;8.35;5.10;;;;;;;3.67;75.15;99555.34;4999239;28;20033;-85
2024/03/17 05:54:58;;;;;;;14.57;6.35;;;;;;;3.60;74.48;99565.84;5001183;28;20025;-85
2024/03/17 05:57:24;;;;;;;13.93;5.70;;;;;;;3.45;75.48;99532.59;5011316;28;20440;-85
2024/03/17 05:59:49;;;;;;;11.80;5.45;;;;;;;3.68;74.95;99557.00;5013558;28;20089;-85
2024/03/17 06:02:15;;;;;;;7.70;5.57;;;;;;;3.61;75.06;99546.38;5012232;28;20567;-84
2024/03/17 06:04:41;;;;;;;10.93;5.18;;;;;;;3.62;74.94;99555.94;4999328;28;20040;-84
2024/03/17 06:07:06;;;;;;;10.00;4.72;;;;;;;2.80;75.58;99419.22;5025955;28;20033;-86
2024/03/17 06:09:32;;;;;;;10.68;5.93;;;;;;;3.71;74.66;99560.06;5010106;28;20061;-86
2024/03/17 06:11:57;;;;;;;12.70;5.90;;;;;;;3.70;74.49;99561.09;5028518;28;20052;-85
2024/03/17 06:14:23;;;;;;;7.95;5.00;;;;;;;3.56;74.65;99537.38;5030594;28;20040;-86
2024/03/17 06:16:48;;;;;;;8.30;5.45;;;;;;;3.70;74.72;99565.53;5005776;28;20711;-86
2024/03/17 06:19:14;;;;;;;14.07;5.70;;;;;;;3.50;75.09;99531.00;5011197;28;20099;-86
2024/03/17 06:21:40;;;;;;;14.05;6.68;;;;;;;3.39;74.93;99510.38;5012029;28;20026;-85
2024/03/17 06:24:06;;;;;;;9.15;5.65;;;;;;;3.55;75.07;99543.66;5001851;28;20492;-86
2024/03/17 06:26:34;;;;;;;10.57;6.10;;;;;;;3.70;75.20;99562.91;4988377;28;20156;-86
2024/03/17 06:29:02;;;;;;;11.02;5.57;;;;;;;3.76;75.04;99562.16;5016232;28;20040;-86
2024/03/17 06:31:27;;;;;;;13.05;6.50;;;;;;;3.77;75.20;99550.59;5034546;28;20026;-86
2024/03/17 06:33:53;;;;;;;11.30;5.53;;;;;;;3.73;75.70;99547.50;4996520;28;20051;-86
2024/03/17 06:36:18;;;;;;;12.18;5.85;;;;;;;3.60;76.28;99543.94;5000360;28;20441;-85
2024/03/17 06:38:43;;;;;;;12.55;6.10;;;;;;;3.72;75.98;99519.47;5032765;28;20083;-85
2024/03/17 06:41:15;;;;;;;14.05;6.75;;;;;;;3.68;74.92;99506.84;5013565;28;20377;-86
2024/03/17 06:43:43;;;;;;;8.93;6.00;;;;;;;3.65;75.25;99494.84;5010187;28;20056;-84
2024/03/17 06:46:08;;;;;;;9.77;6.07;;;;;;;3.75;75.56;99499.81;5007333;28;20057;-85
2024/03/17 06:48:34;;;;;;;13.18;6.50;;;;;;;3.59;75.78;99469.19;4998301;28;20121;-85
2024/03/17 06:50:59;;;;;;;11.10;6.30;;;;;;;3.91;76.17;99533.88;5013892;28;20029;-81
2024/03/17 06:53:28;;;;;;;13.05;6.95;;;;;;;3.66;75.79;99490.38;5014824;28;20392;-81
2024/03/17 06:55:54;;;;;;;12.02;5.95;;;;;;;3.88;76.21;99530.78;5008138;28;20176;-80
2024/03/17 06:58:23;;;;;;;10.38;5.97;;;;;;;2.95;79.10;99513.09;5011066;28;20068;-80
2024/03/17 07:01:00;;;;;;;8.77;5.55;;;;;;;3.29;79.10;99485.31;5031281;28;20021;-85
2024/03/17 07:03:27;;;;;;;11.35;5.57;;;;;;;3.64;78.02;99511.69;5009652;28;20083;-85
2024/03/17 07:05:58;;;;;;;11.40;6.03;;;;;;;3.82;77.73;99535.03;5028096;28;20034;-84
2024/03/17 07:08:24;;;;;;;12.38;6.05;;;;;;;3.68;77.72;99525.31;5027428;28;20029;-85
2024/03/17 07:11:03;;;;;;;11.85;5.75;;;;;;;3.57;79.25;99524.00;5008516;28;20068;-80
2024/03/17 07:13:41;;;;;;;12.95;5.90;;;;;;;3.62;79.13;99529.53;5009595;28;20034;-81
2024/03/17 07:16:07;;;;;;;8.00;5.82;;;;;;;3.44;78.01;99488.72;5031343;28;20036;-80
2024/03/17 07:18:34;;;;;;;10.70;5.90;;;;;;;3.57;79.30;99531.09;5012989;28;20014;-81
2024/03/17 07:21:03;;;;;;;12.52;5.93;;;;;;;3.59;78.80;99495.59;5034400;28;20029;-80
2024/03/17 07:23:30;;;;;;;12.93;5.78;;;;;;;3.91;78.02;99533.06;5007822;28;20036;-81
2024/03/17 07:25:56;;;;;;;12.10;7.15;;;;;;;3.32;80.17;99508.69;5015276;28;20040;-81
2024/03/17 07:28:22;;;;;;;15.43;6.40;;;;;;;3.46;81.28;99528.94;5008066;28;20032;-81
2024/03/17 07:30:56;;;;;;;10.85;6.32;;;;;;;3.66;80.14;99509.69;5004920;28;20448;-80
2024/03/17 07:33:22;;;;;;;15.70;7.30;;;;;;;3.68;80.96;99520.03;5006219;28;20061;-81
2024/03/17 07:35:56;;;;;;;20.30;7.45;;;;;;;3.95;79.17;99521.13;5013151;28;20025;-81
2024/03/17 07:38:23;;;;;;;20.50;7.55;;;;;;;3.79;79.83;99519.53;5030442;28;20025;-81
2024/03/17 07:41:05;;;;;;;9.10;6.13;;;;;;;4.09;79.76;99521.03;5030688;28;20037;-81
2024/03/17 07:43:33;;;;;;;17.10;7.15;;;;;;;3.86;81.18;99511.69;5006061;28;20025;-80
2024/03/17 07:46:12;;;;;;;9.43;6.10;;;;;;;4.11;79.64;99526.13;5020913;28;20053;-81
2024/03/17 07:48:42;;;;;;;11.65;5.78;;;;;;;4.23;79.36;99525.44;5011627;28;20497;-81
2024/03/17 07:51:16;;;;;;;16.85;7.35;;;;;;;3.95;80.92;99527.22;5025688;28;20100;-81
2024/03/17 07:53:44;;;;;;;11.40;6.70;;;;;;;4.30;79.40;99521.00;5010162;28;20121;-81
2024/03/17 07:56:14;;;;;;;12.32;5.63;;;;;;;4.18;80.96;99524.34;5011492;28;20021;-82
2024/03/17 07:58:41;;;;;;;11.02;6.55;;;;;;;4.02;81.43;99525.44;5029889;28;20026;-80
2024/03/17 08:01:09;;;;;;;15.27;8.02;;;;;;;3.56;85.62;99537.38;4994469;28;21644;-80
2024/03/17 08:03:37;;;;;;;13.15;7.47;;;;;;;3.35;87.65;99535.50;5008614;28;20059;-80
2024/03/17 08:06:04;;;;;;;13.02;7.30;;;;;;;3.41;88.23;99537.41;5012393;28;20446;-80
2024/03/17 08:08:30;;;;;;;15.90;7.30;;;;;;;3.40;87.09;99519.13;5029265;28;20043;-80
2024/03/17 08:10:57;;;;;;;10.77;6.63;;;;;;;3.84;86.12;99537.47;5011840;28;20048;-81
2024/03/17 08:13:22;;;;;;;10.00;6.70;;;;;;;4.29;83.48;99532.59;5025606;28;20519;-80
2024/03/17 08:15:56;;;;;;;13.75;7.32;;;;;;;4.47;81.20;99524.19;5008267;28;20034;-81
2024/03/17 08:18:22;;;;;;;13.27;8.00;;;;;;;4.11;83.98;99526.13;5010532;28;20029;-81
2024/03/17 08:20:47;;;;;;;13.98;7.97;;;;;;;4.20;84.02;99525.81;5029336;28;20029;-81
2024/03/17 08:23:13;;;;;;;11.90;6.78;;;;;;;3.58;87.53;99520.34;5026438;28;20481;-82
2024/03/17 08:25:38;;;;;;;13.55;7.97;;;;;;;3.90;84.80;99520.84;5006222;28;20037;-82
2024/03/17 08:28:04;;;;;;;15.63;6.97;;;;;;;4.65;81.37;99524.53;4973440;28;20025;-82
2024/03/17 08:30:30;;;;;;;13.68;7.15;;;;;;;4.50;82.68;99523.78;5032397;28;20161;-82
2024/03/17 08:32:56;;;;;;;13.40;7.28;;;;;;;4.16;83.99;99514.00;5010643;28;20084;-82
2024/03/17 08:35:22;;;;;;;11.55;6.40;;;;;;;4.54;82.53;99499.41;5014685;28;20030;-81
2024/03/17 08:37:47;;;;;;;18.35;6.97;;;;;;;4.75;81.19;99516.22;5011061;28;20067;-81
2024/03/17 08:40:13;;;;;;;17.38;7.75;;;;;;;4.50;82.24;99516.69;4996702;28;20025;-83
2024/03/17 08:42:39;;;;;;;17.15;8.25;;;;;;;4.58;83.18;99507.78;5008615;28;20555;-82
2024/03/17 08:45:05;;;;;;;11.95;8.02;;;;;;;4.75;82.29;99510.94;5025492;28;20481;-82
2024/03/17 08:47:30;;;;;;;20.98;8.02;;;;;;;5.11;79.93;99501.75;5030206;28;20070;-82
2024/03/17 08:49:55;;;;;;;14.88;8.38;;;;;;;4.81;82.37;99515.44;5008329;28;20109;-82
2024/03/17 08:52:21;;;;;;;14.05;6.93;;;;;;;4.71;82.52;99496.47;5009000;28;20055;-82
2024/03/17 08:54:47;;;;;;;23.15;8.45;;;;;;;4.64;83.18;99490.31;5028795;28;20037;-81
2024/03/17 08:57:13;;;;;;;16.60;8.10;;;;;;;4.72;83.27;99500.75;5028236;28;20029;-81
2024/03/17 08:59:39;;;;;;;18.25;8.57;;;;;;;4.65;84.28;99513.13;5007161;28;20067;-81
2024/03/17 09:02:04;;;;;;;14.25;7.60;;;;;;;4.96;82.82;99508.19;4980214;28;20041;-82
2024/03/17 09:04:31;;;;;;;14.35;8.57;;;;;;;4.89;82.59;99481.72;5024467;28;20501;-81
2024/03/17 09:06:56;;;;;;;11.43;8.30;;;;;;;5.05;81.67;99493.78;5007491;28;20059;-81
2024/03/17 09:09:22;;;;;;;16.75;8.27;;;;;;;5.01;82.42;99479.31;4993293;28;20040;-82
2024/03/17 09:11:48;;;;;;;12.82;9.07;;;;;;;5.13;82.57;99498.94;4996126;28;20037;-81
2024/03/17 09:14:13;;;;;;;19.48;8.90;;;;;;;4.90;83.00;99490.47;4993384;28;20184;-81
2024/03/17 09:16:38;;;;;;;11.52;8.70;;;;;;;4.95;83.75;99502.09;5026856;28;20079;-80
2024/03/17 09:19:04;;;;;;;11.25;7.55;;;;;;;4.99;83.36;99466.31;5028828;28;20029;-82
2024/03/17 09:21:29;;;;;;;17.52;8.88;;;;;;;5.26;81.71;99483.09;4998742;28;20053;-82
2024/03/17 09:23:54;;;;;;;13.27;7.78;;;;;;;5.52;81.43;99487.66;5010359;28;20032;-81
2024/03/17 09:26:20;;;;;;;11.65;7.25;;;;;;;5.75;79.65;99491.56;5026375;28;20053;-82
2024/03/17 09:28:45;;;;;;;17.88;8.43;;;;;;;5.41;80.24;99462.59;5006989;28;20037;-81
2024/03/17 09:31:11;;;;;;;21.70;10.05;;;;;;;5.32;80.41;99491.06;5003720;28;20030;-81
2024/03/17 09:33:38;;;;;;;17.90;8.48;;;;;;;5.58;80.92;99492.13;5028818;28;20060;-81
2024/03/17 09:36:09;;;;;;;19.50;11.32;;;;;;;5.43;81.15;99479.06;5010786;28;20021;-81
2024/03/17 09:38:35;;;;;;;20.25;10.88;;;;;;;5.67;80.54;99494.41;5006082;28;20029;-81
2024/03/17 09:41:01;;;;;;;23.05;10.93;;;;;;;5.75;80.48;99496.03;5004386;28;20033;-81
2024/03/17 09:43:28;;;;;;;24.50;11.57;;;;;;;5.76;80.89;99506.44;4992977;28;20030;-82
2024/03/17 09:45:57;;;;;;;18.45;10.40;;;;;;;6.21;78.46;99494.28;5021556;28;20052;-80
2024/03/17 09:48:28;;;;;;;20.00;12.68;;;;;;;5.62;79.23;99496.00;5026070;28;20029;-81
2024/03/17 09:50:55;;;;;;;21.30;10.05;;;;;;;6.25;79.41;99500.78;5024547;28;20038;-85
2024/03/17 09:53:32;;;;;;;18.58;10.90;;;;;;;6.28;78.13;99481.00;5006985;28;20140;-85
2024/03/17 09:56:09;;;;;;;28.48;14.30;;;;;;;5.95;78.39;99481.84;5004912;28;20048;-84
2024/03/17 09:58:34;;;;;;;17.92;10.25;;;;;;;6.23;79.02;99492.22;5034629;28;20041;-84
2024/03/17 10:01:00;;;;;;;22.35;13.15;;;;;;;5.95;77.90;99494.25;5017345;28;20079;-81
2024/03/17 10:03:46;;;;;;;21.40;12.35;;;;;;;6.50;78.04;99507.09;4996843;28;20064;-82
2024/03/17 10:06:12;;;;;;;28.02;13.60;;;;;;;6.48;77.26;99506.50;5025923;28;20049;-82
2024/03/17 10:08:46;;;;;;;29.38;15.98;;;;;;;6.34;77.20;99490.78;5034065;28;20034;-82
2024/03/17 10:11:13;;;;;;;28.42;17.70;;;;;;;6.15;75.19;99476.53;4997095;28;20038;-81
2024/03/17 10:13:39;;;;;;;20.92;13.80;;;;;;;6.48;77.49;99489.75;4997632;28;20037;-81
2024/03/17 10:16:04;;;;;;;25.10;15.80;;;;;;;6.71;76.31;99485.63;4978383;28;20040;-81
2024/03/17 10:18:31;;;;;;;29.15;15.65;;;;;;;6.69;75.44;99482.38;5015415;28;20029;-81
2024/03/17 10:20:57;;;;;;;23.50;14.00;;;;;;;6.83;76.15;99493.78;5013437;28;20036;-81
2024/03/17 10:23:23;;;;;;;25.65;15.88;;;;;;;6.84;75.66;99476.03;5021431;28;20041;-81
2024/03/17 10:25:49;;;;;;;31.08;15.98;;;;;;;7.02;74.13;99481.47;5031555;28;20477;-81
2024/03/17 10:28:16;;;;;;;24.65;14.95;;;;;;;7.28;73.37;99499.94;4997363;28;20104;-80
2024/03/17 10:30:42;;;;;;;28.38;16.25;;;;;;;6.82;70.19;99468.25;5033934;28;20021;-82
2024/03/17 10:33:22;;;;;;;25.88;16.80;;;;;;;6.95;72.83;99492.09;5032759;28;20131;-81
2024/03/17 10:35:48;;;;;;;33.15;17.48;;;;;;;6.93;72.69;99461.47;5030593;28;20113;-81
2024/03/17 10:38:14;;;;;;;30.42;17.25;;;;;;;6.88;70.12;99478.03;5031394;28;20479;-81
2024/03/17 10:40:41;;;;;;;28.50;15.30;;;;;;;6.63;68.59;99493.81;5032632;28;20051;-81
2024/03/17 10:43:07;;;;;;;23.40;16.13;;;;;;;7.07;72.78;99476.34;5029047;28;20045;-81
2024/03/17 10:45:38;;;;;;;24.38;15.27;;;;;;;7.41;72.25;99478.63;5028444;28;20025;-81
2024/03/17 10:48:07;;;;;;;24.10;15.75;;;;;;;7.55;71.95;99478.34;5024458;28;20408;-81
2024/03/17 10:50:36;;;;;;;32.15;15.65;;;;;;;7.87;71.06;99451.75;5028310;28;20026;-81
2024/03/17 10:53:08;;;;;;;27.27;17.00;;;;;;;8.13;69.58;99489.59;5015601;28;20409;-82
2024/03/17 10:55:47;;;;;;;25.75;14.63;;;;;;;8.12;68.48;99482.66;5013298;28;20033;-82
2024/03/17 10:58:46;;;;;;;27.85;16.40;;;;;;;8.09;69.16;99479.59;5013308;28;20033;-82
2024/03/17 11:01:13;;;;;;;23.60;14.48;;;;;;;8.16;68.88;99480.38;5008309;28;20478;-81
2024/03/17 11:03:39;;;;;;;25.35;15.70;;;;;;;8.04;69.29;99471.44;4998674;28;20044;-82
2024/03/17 11:06:06;;;;;;;26.73;15.10;;;;;;;7.91;70.06;99472.38;4985836;28;20025;-82
2024/03/17 11:08:33;;;;;;;28.00;15.02;;;;;;;7.52;66.31;99478.78;5018169;28;20034;-82
2024/03/17 11:11:00;;;;;;;31.15;15.95;;;;;;;7.49;65.40;99473.09;5015045;28;21543;-82
2024/03/17 11:13:30;;;;;;;21.73;15.43;;;;;;;7.75;70.72;99456.16;5000975;28;20132;-81
2024/03/17 11:15:58;;;;;;;23.55;14.57;;;;;;;8.20;70.25;99462.94;5028511;28;20439;-82
2024/03/17 11:18:23;;;;;;;27.50;16.50;;;;;;;8.32;65.92;99463.91;5014032;28;20025;-81
2024/03/17 11:21:15;;;;;;;28.95;15.30;;;;;;;8.13;65.36;99459.53;5011369;28;20036;-81
2024/03/17 11:23:41;;;;;;;27.15;15.00;;;;;;;7.99;65.20;99453.53;4996715;28;20037;-81
2024/03/17 11:26:08;;;;;;;24.50;14.80;;;;;;;8.27;66.97;99439.81;5012517;28;20100;-82
2024/03/17 11:28:45;;;;;;;26.42;16.25;;;;;;;8.32;65.67;99448.75;5025674;28;20022;-81
2024/03/17 11:31:32;;;;;;;23.75;15.73;;;;;;;8.13;64.32;99448.88;5030095;28;20036;-81
2024/03/17 11:34:00;;;;;;;21.23;14.75;;;;;;;8.61;64.33;99425.94;5011032;28;20952;-82
2024/03/17 11:36:25;;;;;;;26.63;15.70;;;;;;;8.52;63.89;99445.88;5030278;28;20411;-82
2024/03/17 11:38:55;;;;;;;24.55;13.90;;;;;;;7.95;63.87;99428.38;5031723;28;20026;-80